Time;durP1;ratioP1;P1;durP2;ratioP2;P2;SDS_P1;SDS_P2;PMS_P1;PMS_P2;Temp;Humidity;BMP_temperature;BMP_pressure;BME280_temperature;BME280_humidity;BME280_pressure;Samples;Min_cycle;Max_cycle;Signal;HPM_P1;HPM_P2
2022/06/07 00:00:17;;;;;;;6.97;4.50;;;20.40;42.00;;;;;;5062478;28;20454;-76
2022/06/07 00:02:42;;;;;;;4.70;3.50;;;20.00;43.10;;;;;;5056664;28;20926;-77
2022/06/07 00:05:08;;;;;;;11.60;4.50;;;19.70;44.60;;;;;;5065146;28;20499;-76
2022/06/07 00:07:34;;;;;;;7.60;4.23;;;19.40;45.40;;;;;;5059162;28;20188;-74
2022/06/07 00:09:59;;;;;;;7.60;4.27;;;19.10;47.00;;;;;;5059216;28;20270;-76
2022/06/07 00:12:26;;;;;;;6.57;3.83;;;19.00;49.50;;;;;;5066999;28;20185;-74
2022/06/07 00:14:52;;;;;;;11.63;3.87;;;19.30;50.30;;;;;;5066114;28;20211;-73
2022/06/07 00:17:18;;;;;;;11.87;3.97;;;19.20;49.70;;;;;;5059601;28;20520;-75
2022/06/07 00:19:44;;;;;;;10.80;3.97;;;19.70;45.80;;;;;;5057417;28;20460;-74
2022/06/07 00:22:10;;;;;;;8.87;3.70;;;19.50;46.60;;;;;;5067078;28;20990;-75
2022/06/07 00:24:36;;;;;;;9.30;4.20;;;19.50;46.60;;;;;;5054650;28;20201;-74
2022/06/07 00:27:03;;;;;;;5.00;3.83;;;19.30;48.50;;;;;;5060073;28;20476;-74
2022/06/07 00:29:30;;;;;;;9.23;4.00;;;19.70;49.60;;;;;;5061021;28;20429;-74
2022/06/07 00:31:56;;;;;;;11.10;3.87;;;20.50;49.30;;;;;;5069750;28;20437;-72
2022/06/07 00:34:23;;;;;;;6.50;4.47;;;20.70;48.50;;;;;;5062839;28;20491;-75
2022/06/07 00:36:48;;;;;;;8.00;4.57;;;21.00;47.00;;;;;;5069391;28;20929;-75
2022/06/07 00:39:14;;;;;;;6.60;4.70;;;20.90;49.00;;;;;;5057984;28;20538;-75
2022/06/07 00:41:41;;;;;;;5.17;3.90;;;20.90;50.10;;;;;;5062729;28;20199;-75
2022/06/07 00:44:24;;;;;;;7.10;4.97;;;20.80;46.70;;;;;;5061365;28;20178;-75
2022/06/07 00:47:12;;;;;;;11.87;4.30;;;20.90;49.40;;;;;;5066211;28;20438;-74
2022/06/07 00:49:49;;;;;;;4.73;3.80;;;20.80;51.50;;;;;;5063491;28;20975;-74
2022/06/07 00:52:20;;;;;;;5.10;3.87;;;21.00;43.20;;;;;;5061995;28;21075;-75
2022/06/07 00:54:46;;;;;;;6.37;3.63;;;21.00;44.00;;;;;;5063680;28;20534;-73
2022/06/07 00:57:12;;;;;;;4.73;3.87;;;20.90;44.90;;;;;;5066135;28;20437;-74
2022/06/07 00:59:38;;;;;;;15.53;4.50;;;20.80;45.20;;;;;;5064321;28;20475;-75
2022/06/07 01:02:04;;;;;;;5.50;4.10;;;20.80;46.40;;;;;;5061660;28;20214;-76
2022/06/07 01:04:29;;;;;;;6.07;4.23;;;20.70;49.60;;;;;;5061502;28;20199;-75
2022/06/07 01:12:27;;;;;;;5.10;4.20;;;20.40;52.70;;;;;;5059643;28;20420;-74
2022/06/07 01:14:53;;;;;;;7.87;4.50;;;20.30;54.20;;;;;;5062536;28;20454;-75
2022/06/07 01:17:19;;;;;;;7.70;5.00;;;20.30;55.80;;;;;;5063470;28;20486;-74
2022/06/07 01:19:45;;;;;;;6.37;4.80;;;20.30;55.40;;;;;;5063734;28;20437;-73
2022/06/07 01:22:12;;;;;;;12.57;5.10;;;20.20;56.10;;;;;;5066260;28;20201;-74
2022/06/07 01:24:38;;;;;;;5.97;4.70;;;20.20;56.70;;;;;;5065911;28;20458;-75
2022/06/07 01:27:06;;;;;;;16.53;5.37;;;20.20;55.40;;;;;;5065228;28;20427;-75
2022/06/07 01:29:32;;;;;;;7.00;5.03;;;20.20;56.60;;;;;;5066911;28;20521;-75
2022/06/07 01:31:57;;;;;;;11.83;4.60;;;20.20;55.90;;;;;;5067332;28;20872;-74
2022/06/07 01:34:24;;;;;;;10.67;4.97;;;20.10;56.10;;;;;;5065853;28;20202;-74
2022/06/07 01:36:49;;;;;;;7.00;4.60;;;20.20;55.60;;;;;;5065870;28;20186;-74
2022/06/07 01:42:00;;;;;;;11.00;4.50;;;20.10;57.10;;;;;;5066764;28;20221;-75
2022/06/07 01:44:32;;;;;;;6.43;4.43;;;20.10;57.30;;;;;;5065277;28;20831;-74
2022/06/07 01:46:59;;;;;;;9.07;5.30;;;20.00;56.50;;;;;;5065684;28;20424;-74
2022/06/07 01:49:25;;;;;;;10.67;4.80;;;20.00;57.40;;;;;;5064679;28;20924;-74
2022/06/07 01:51:52;;;;;;;7.60;4.43;;;20.00;57.90;;;;;;5072228;28;20440;-75
2022/06/07 01:54:20;;;;;;;8.40;4.63;;;20.00;57.90;;;;;;5064626;28;20468;-74
2022/06/07 01:56:46;;;;;;;8.87;4.43;;;19.90;57.20;;;;;;5066676;28;20434;-75
2022/06/07 01:59:12;;;;;;;8.03;5.20;;;20.10;58.00;;;;;;5063804;28;20450;-75
2022/06/07 02:01:38;;;;;;;6.43;4.63;;;20.00;57.90;;;;;;5067101;28;20463;-74
2022/06/07 02:04:05;;;;;;;10.33;4.63;;;20.00;56.50;;;;;;5063947;28;20639;-75
2022/06/07 02:06:31;;;;;;;5.80;4.50;;;19.90;56.60;;;;;;5065345;28;20269;-75
2022/06/07 02:08:56;;;;;;;9.73;5.00;;;19.90;57.80;;;;;;5065427;28;20470;-74
2022/06/07 02:11:25;;;;;;;6.93;4.53;;;19.90;58.20;;;;;;5061529;28;20261;-74
2022/06/07 02:13:52;;;;;;;8.53;4.30;;;19.90;58.50;;;;;;5065525;28;20557;-74
2022/06/07 02:16:18;;;;;;;4.90;4.20;;;20.00;57.90;;;;;;5062138;28;20519;-75
2022/06/07 02:18:46;;;;;;;6.90;4.70;;;19.90;58.80;;;;;;5061819;28;20780;-73
2022/06/07 02:21:13;;;;;;;6.23;4.70;;;19.90;58.70;;;;;;5063536;28;20580;-73
2022/06/07 02:23:39;;;;;;;6.67;4.47;;;19.90;58.80;;;;;;5068183;28;20527;-73
2022/06/07 02:26:13;;;;;;;8.57;5.03;;;19.80;58.00;;;;;;5062698;28;20578;-74
2022/06/07 02:28:41;;;;;;;6.60;4.80;;;19.90;59.60;;;;;;5061405;28;20652;-73
2022/06/07 02:31:08;;;;;;;7.80;5.17;;;19.90;59.10;;;;;;5062301;28;20531;-74
2022/06/07 02:33:36;;;;;;;7.63;4.67;;;19.90;59.60;;;;;;5065948;28;20453;-75
2022/06/07 02:36:04;;;;;;;6.97;4.73;;;19.90;59.30;;;;;;5056958;28;20457;-73
2022/06/07 02:38:30;;;;;;;9.33;5.00;;;19.90;58.70;;;;;;5064866;28;20428;-74
2022/06/07 02:40:56;;;;;;;5.70;4.97;;;19.90;58.50;;;;;;5064531;28;20427;-75
2022/06/07 02:43:21;;;;;;;6.90;4.70;;;19.90;57.60;;;;;;5065958;28;20930;-74
2022/06/07 02:45:47;;;;;;;7.70;4.70;;;19.90;58.90;;;;;;5071753;28;20542;-74
2022/06/07 02:48:13;;;;;;;10.90;5.53;;;19.80;59.10;;;;;;5062265;28;20218;-73
2022/06/07 02:50:38;;;;;;;7.30;4.63;;;19.70;59.90;;;;;;5063414;28;20183;-75
2022/06/07 02:53:04;;;;;;;7.97;4.50;;;19.70;59.60;;;;;;5059953;28;20222;-74
2022/06/07 02:55:31;;;;;;;5.63;4.60;;;19.70;59.30;;;;;;5066406;28;20747;-75
2022/06/07 02:57:56;;;;;;;4.90;4.33;;;19.80;58.40;;;;;;5061156;28;20437;-75
2022/06/07 03:00:22;;;;;;;8.30;4.70;;;19.80;58.40;;;;;;5060838;28;20498;-74
2022/06/07 03:02:48;;;;;;;10.37;4.10;;;19.80;59.30;;;;;;5066958;28;20207;-74
2022/06/07 03:05:15;;;;;;;5.73;4.53;;;19.90;57.20;;;;;;5064387;28;20526;-74
2022/06/07 03:07:41;;;;;;;7.93;4.50;;;19.80;57.90;;;;;;5071924;28;20554;-75
2022/06/07 03:10:09;;;;;;;8.57;4.23;;;19.80;58.40;;;;;;5064803;28;20472;-74
2022/06/07 03:12:35;;;;;;;8.57;4.20;;;19.70;57.60;;;;;;5060302;28;20527;-75
2022/06/07 03:15:01;;;;;;;6.70;3.77;;;19.70;58.00;;;;;;5069315;28;20591;-73
2022/06/07 03:17:26;;;;;;;6.80;4.20;;;19.70;57.70;;;;;;5062322;28;20446;-75
2022/06/07 03:19:52;;;;;;;5.40;4.10;;;19.70;59.30;;;;;;5061201;28;20220;-75
2022/06/07 03:22:19;;;;;;;8.17;5.40;;;19.80;54.40;;;;;;5072949;28;20209;-75
2022/06/07 03:24:44;;;;;;;7.10;4.33;;;19.80;57.70;;;;;;5065838;28;20580;-75
2022/06/07 03:27:11;;;;;;;7.00;4.47;;;19.80;57.70;;;;;;5064620;28;20519;-74
2022/06/07 03:29:37;;;;;;;10.73;4.40;;;19.70;58.80;;;;;;5071691;28;20179;-75
2022/06/07 03:32:04;;;;;;;6.40;4.40;;;19.70;57.60;;;;;;5071895;28;20789;-74
2022/06/07 03:34:29;;;;;;;5.40;4.10;;;19.80;54.10;;;;;;5063254;28;20962;-75
2022/06/07 03:36:55;;;;;;;6.13;4.50;;;19.70;55.30;;;;;;5063432;28;20448;-74
2022/06/07 03:39:21;;;;;;;6.87;4.67;;;19.80;55.70;;;;;;5049908;28;20186;-75
2022/06/07 03:41:47;;;;;;;5.07;4.07;;;19.70;59.20;;;;;;5061341;28;20467;-73
2022/06/07 03:44:13;;;;;;;7.17;4.60;;;19.70;57.60;;;;;;5069429;28;20242;-74
2022/06/07 03:46:42;;;;;;;8.30;5.00;;;19.60;57.70;;;;;;5063459;28;20424;-74
2022/06/07 03:49:08;;;;;;;9.10;5.10;;;19.70;58.70;;;;;;5061365;28;20177;-74
2022/06/07 03:51:34;;;;;;;6.13;4.60;;;19.60;60.60;;;;;;5062520;28;20492;-74
2022/06/07 03:54:00;;;;;;;7.13;5.13;;;19.70;58.90;;;;;;5059844;28;20438;-74
2022/06/07 03:56:27;;;;;;;8.60;5.30;;;19.80;59.50;;;;;;5066839;28;20998;-74
2022/06/07 03:58:53;;;;;;;6.80;4.40;;;19.70;58.50;;;;;;5064276;28;20564;-73
2022/06/07 04:01:21;;;;;;;6.60;4.70;;;19.70;57.60;;;;;;5070301;28;20951;-74
2022/06/07 04:03:49;;;;;;;9.30;5.37;;;19.70;59.80;;;;;;5070819;28;20948;-73
2022/06/07 04:06:25;;;;;;;8.80;5.43;;;19.70;60.50;;;;;;5060451;28;20455;-75
2022/06/07 04:08:51;;;;;;;10.13;5.77;;;19.70;60.90;;;;;;5066432;28;20438;-75
2022/06/07 04:11:20;;;;;;;6.40;4.70;;;19.60;61.90;;;;;;5069010;28;20494;-74
2022/06/07 04:13:46;;;;;;;7.63;5.47;;;19.60;61.60;;;;;;5065766;28;20506;-75
2022/06/07 04:16:15;;;;;;;6.70;5.13;;;19.60;61.60;;;;;;5062479;28;20457;-73
2022/06/07 04:18:42;;;;;;;8.10;5.87;;;19.60;62.20;;;;;;5062294;28;20476;-73
2022/06/07 04:21:09;;;;;;;6.70;4.53;;;19.60;62.40;;;;;;5063254;28;20443;-74
2022/06/07 04:23:34;;;;;;;7.73;4.73;;;19.60;60.00;;;;;;5065414;28;20471;-75
2022/06/07 04:26:12;;;;;;;9.47;4.97;;;19.50;60.90;;;;;;5059367;28;20453;-75
2022/06/07 04:28:38;;;;;;;9.27;5.10;;;19.70;61.50;;;;;;5044812;28;20174;-75
2022/06/07 04:31:11;;;;;;;7.17;5.10;;;19.90;58.90;;;;;;5062304;28;20927;-74
2022/06/07 04:33:36;;;;;;;9.87;5.13;;;20.00;59.50;;;;;;5063703;28;20443;-75
2022/06/07 04:36:03;;;;;;;7.10;4.70;;;19.90;60.10;;;;;;5060565;28;20469;-75
2022/06/07 04:38:29;;;;;;;6.57;4.60;;;19.80;60.30;;;;;;5062573;28;20173;-75
2022/06/07 04:40:55;;;;;;;9.83;4.90;;;19.70;60.30;;;;;;5061523;28;20799;-74
2022/06/07 04:43:21;;;;;;;11.50;4.30;;;19.70;60.90;;;;;;5071833;28;20468;-75
2022/06/07 04:45:48;;;;;;;7.80;4.60;;;19.70;60.90;;;;;;5063450;28;20207;-74
2022/06/07 04:48:13;;;;;;;8.17;5.10;;;19.70;61.40;;;;;;5061157;28;20172;-75
2022/06/07 04:50:39;;;;;;;8.03;4.70;;;19.70;62.10;;;;;;5064896;28;20445;-75
2022/06/07 04:53:05;;;;;;;5.80;4.80;;;19.80;59.50;;;;;;5072841;28;20182;-75
2022/06/07 04:55:30;;;;;;;10.30;5.80;;;19.80;59.70;;;;;;5066550;28;20801;-74
2022/06/07 04:57:56;;;;;;;9.50;5.27;;;19.90;60.80;;;;;;5060613;28;20211;-72
2022/06/07 05:00:21;;;;;;;6.77;4.57;;;19.90;60.40;;;;;;5066171;28;20188;-75
2022/06/07 05:02:48;;;;;;;10.27;5.10;;;19.90;60.50;;;;;;5066606;28;20196;-75
2022/06/07 05:05:15;;;;;;;9.13;5.00;;;20.00;60.30;;;;;;5065749;28;20196;-75
2022/06/07 05:07:41;;;;;;;7.83;4.60;;;20.10;60.00;;;;;;5067687;28;20428;-75
2022/06/07 05:10:09;;;;;;;7.43;5.07;;;20.10;60.00;;;;;;5063434;28;20987;-74
2022/06/07 05:12:35;;;;;;;6.23;4.83;;;23.80;61.40;;;;;;5067680;28;20435;-73
2022/06/07 05:15:02;;;;;;;7.70;5.70;;;20.20;56.20;;;;;;5072147;28;20454;-74
2022/06/07 05:17:27;;;;;;;7.30;5.00;;;20.10;57.90;;;;;;5065143;28;20431;-75
2022/06/07 05:19:53;;;;;;;8.97;5.10;;;20.10;59.50;;;;;;5062603;28;20807;-75
2022/06/07 05:22:19;;;;;;;6.97;4.77;;;20.10;60.10;;;;;;5066337;28;20205;-74
2022/06/07 05:24:44;;;;;;;26.87;4.90;;;20.10;60.00;;;;;;5066039;28;20242;-75
2022/06/07 05:27:15;;;;;;;8.50;4.73;;;20.00;60.60;;;;;;5041880;28;20184;-75
2022/06/07 05:29:50;;;;;;;6.40;4.33;;;20.00;61.40;;;;;;5068116;28;20167;-75
2022/06/07 05:32:17;;;;;;;7.50;5.03;;;20.00;61.00;;;;;;5064540;28;20492;-75
2022/06/07 05:34:43;;;;;;;8.30;4.53;;;20.10;59.70;;;;;;5064301;28;20463;-76
2022/06/07 05:37:15;;;;;;;6.80;4.50;;;20.20;60.30;;;;;;5060710;28;20445;-76
2022/06/07 05:39:41;;;;;;;7.53;5.00;;;20.50;56.00;;;;;;5062026;28;20439;-75
2022/06/07 05:42:10;;;;;;;12.20;4.80;;;20.50;56.70;;;;;;5059924;28;20485;-76
2022/06/07 05:44:36;;;;;;;8.00;4.23;;;20.50;52.60;;;;;;5065805;28;20241;-75
2022/06/07 05:47:03;;;;;;;8.03;4.57;;;20.30;54.90;;;;;;5065033;28;20432;-76
2022/06/07 05:49:29;;;;;;;8.83;4.30;;;20.50;54.20;;;;;;5063722;28;20232;-75
2022/06/07 05:51:54;;;;;;;12.10;4.83;;;20.80;54.30;;;;;;5071255;28;20448;-76
2022/06/07 05:54:20;;;;;;;5.37;4.40;;;20.70;54.50;;;;;;5066042;28;20460;-75
2022/06/07 05:56:46;;;;;;;6.63;4.70;;;20.70;51.90;;;;;;5068189;28;20187;-75
2022/06/07 05:59:12;;;;;;;5.77;4.57;;;20.50;54.10;;;;;;5061453;28;20223;-74
2022/06/07 06:01:38;;;;;;;6.70;4.70;;;20.40;53.90;;;;;;5063583;28;20638;-77
2022/06/07 06:04:06;;;;;;;5.63;4.40;;;20.70;50.60;;;;;;5064527;28;20864;-74
2022/06/07 06:06:33;;;;;;;7.40;4.33;;;20.80;51.90;;;;;;5072033;28;20757;-75
2022/06/07 06:11:43;;;;;;;5.33;4.03;;;20.80;51.60;;;;;;5068374;28;20500;-75
2022/06/07 06:14:10;;;;;;;10.90;4.53;;;20.80;51.10;;;;;;5060181;28;20491;-76
2022/06/07 06:16:37;;;;;;;6.63;4.47;;;20.90;53.10;;;;;;5068437;28;20215;-75
2022/06/07 06:19:03;;;;;;;6.80;4.70;;;21.00;48.50;;;;;;5062307;28;20967;-76
2022/06/07 06:21:36;;;;;;;9.77;5.30;;;21.00;51.80;;;;;;5069001;28;20906;-75
2022/06/07 06:24:02;;;;;;;6.03;4.20;;;20.90;51.20;;;;;;5063179;28;20972;-75
2022/06/07 06:26:28;;;;;;;9.07;4.57;;;21.10;49.70;;;;;;5065980;28;20421;-75
2022/06/07 06:28:54;;;;;;;8.07;5.37;;;21.00;50.30;;;;;;5067020;28;20830;-76
2022/06/07 06:31:20;;;;;;;6.73;4.23;;;20.30;54.20;;;;;;5065444;28;20437;-75
2022/06/07 06:33:49;;;;;;;11.10;4.33;;;19.90;57.20;;;;;;5065077;28;20508;-76
2022/06/07 06:36:20;;;;;;;7.33;4.63;;;19.90;57.80;;;;;;5061709;28;20537;-75
2022/06/07 06:38:46;;;;;;;6.87;4.10;;;20.00;55.50;;;;;;5065796;28;20451;-76
2022/06/07 06:41:21;;;;;;;8.53;4.30;;;20.30;55.60;;;;;;5061594;28;20535;-76
2022/06/07 06:43:48;;;;;;;6.07;4.00;;;19.90;58.90;;;;;;5063219;28;20275;-76
2022/06/07 06:46:22;;;;;;;4.70;4.00;;;19.90;56.30;;;;;;5061195;28;20948;-76
2022/06/07 06:48:49;;;;;;;5.93;3.90;;;20.10;53.90;;;;;;5065246;28;20431;-76
2022/06/07 06:51:18;;;;;;;6.20;3.80;;;19.50;56.30;;;;;;5063533;28;20519;-76
2022/06/07 06:53:44;;;;;;;8.03;4.13;;;19.80;53.90;;;;;;5068411;28;20491;-72
2022/06/07 06:56:12;;;;;;;8.07;3.93;;;19.70;57.00;;;;;;5065710;28;20468;-74
2022/06/07 06:58:40;;;;;;;7.60;4.27;;;19.80;55.40;;;;;;5065320;28;20426;-74
2022/06/07 07:01:09;;;;;;;5.93;3.83;;;19.70;57.10;;;;;;5069614;28;20967;-71
2022/06/07 07:03:36;;;;;;;7.13;4.40;;;19.70;55.10;;;;;;5059836;28;20447;-73
2022/06/07 07:06:03;;;;;;;5.17;3.90;;;20.00;57.90;;;;;;5067234;28;20999;-74
2022/06/07 07:08:29;;;;;;;7.43;4.40;;;19.90;51.40;;;;;;5064255;28;20424;-73
2022/06/07 07:11:26;;;;;;;6.23;4.50;;;19.00;58.60;;;;;;5071667;28;20464;-73
2022/06/07 07:13:54;;;;;;;7.00;4.20;;;18.80;61.20;;;;;;5062166;28;20441;-73
2022/06/07 07:16:23;;;;;;;6.00;4.57;;;18.90;62.40;;;;;;5062330;28;20430;-76
2022/06/07 07:18:49;;;;;;;6.40;4.17;;;19.50;56.70;;;;;;5058717;28;20458;-73
2022/06/07 07:21:22;;;;;;;8.37;4.73;;;19.50;55.80;;;;;;5063420;28;20462;-74
2022/06/07 07:23:47;;;;;;;8.43;4.80;;;20.00;57.90;;;;;;5064583;28;20471;-73
2022/06/07 07:26:28;;;;;;;5.80;4.80;;;20.30;51.50;;;;;;5067467;28;21001;-73
2022/06/07 07:28:54;;;;;;;6.93;5.27;;;19.80;52.50;;;;;;5063792;28;20171;-74
2022/06/07 07:31:22;;;;;;;8.93;4.70;;;20.00;56.90;;;;;;5067132;28;20471;-74
2022/06/07 07:33:48;;;;;;;6.73;4.80;;;20.70;51.50;;;;;;5065502;28;20997;-73
2022/06/07 07:36:14;;;;;;;11.20;4.87;;;20.80;49.70;;;;;;5068158;28;20479;-73
2022/06/07 07:38:41;;;;;;;6.50;4.93;;;20.70;52.90;;;;;;5067017;28;20962;-75
2022/06/07 07:41:18;;;;;;;6.90;4.90;;;20.90;47.60;;;;;;5068822;28;20805;-74
2022/06/07 07:43:45;;;;;;;9.50;5.40;;;21.20;51.10;;;;;;5062927;28;20543;-75
2022/06/07 07:46:12;;;;;;;13.30;5.00;;;21.40;46.10;;;;;;5061341;28;20553;-74
2022/06/07 07:48:38;;;;;;;8.37;5.00;;;21.50;46.60;;;;;;5051542;28;20487;-74
2022/06/07 07:51:06;;;;;;;6.40;4.47;;;20.80;48.40;;;;;;5069107;28;20493;-71
2022/06/07 07:53:32;;;;;;;13.87;4.97;;;21.20;48.70;;;;;;5063190;28;20437;-73
2022/06/07 07:55:58;;;;;;;10.93;4.50;;;20.90;48.30;;;;;;5064699;28;20882;-74
2022/06/07 07:58:23;;;;;;;5.93;4.30;;;20.40;50.00;;;;;;5061136;28;20422;-75
2022/06/07 08:00:50;;;;;;;7.23;5.10;;;20.60;50.00;;;;;;5062397;28;20290;-74
2022/06/07 08:03:18;;;;;;;9.67;5.33;;;20.60;51.50;;;;;;5061253;28;20211;-76
2022/06/07 08:05:45;;;;;;;5.87;3.67;;;21.30;47.70;;;;;;5062597;28;20462;-74
2022/06/07 08:08:11;;;;;;;5.67;4.27;;;20.80;44.40;;;;;;5056750;28;20427;-72
2022/06/07 08:10:38;;;;;;;5.23;3.97;;;20.80;50.60;;;;;;5065358;28;20431;-72
2022/06/07 08:13:05;;;;;;;5.10;4.10;;;21.30;44.60;;;;;;5063704;28;20767;-73
2022/06/07 08:15:33;;;;;;;5.90;3.80;;;21.70;41.70;;;;;;5063461;28;20550;-74
2022/06/07 08:18:02;;;;;;;5.93;4.10;;;21.70;41.50;;;;;;5069936;28;20433;-74
2022/06/07 08:20:31;;;;;;;5.10;3.90;;;21.30;43.60;;;;;;5065410;28;21002;-74
2022/06/07 08:22:57;;;;;;;11.63;3.97;;;21.30;46.50;;;;;;5057436;23;20532;-72
2022/06/07 08:25:23;;;;;;;4.17;3.50;;;21.90;42.30;;;;;;5048769;28;20439;-71
2022/06/07 08:27:48;;;;;;;5.40;3.60;;;20.70;42.60;;;;;;5044285;28;20187;-71
2022/06/07 08:30:15;;;;;;;6.13;3.40;;;21.00;43.60;;;;;;5050081;28;20178;-72
2022/06/07 08:32:41;;;;;;;7.77;4.00;;;21.60;43.10;;;;;;5034787;28;20238;-72
2022/06/07 08:37:56;;;;;;;4.50;3.23;;;21.80;40.70;;;;;;5030680;28;20475;-72
2022/06/07 08:40:36;;;;;;;7.20;4.00;;;21.70;38.20;;;;;;5023678;28;20975;-71
2022/06/07 08:43:18;;;;;;;5.10;3.67;;;22.10;39.20;;;;;;5028045;28;20548;-73
2022/06/07 08:45:47;;;;;;;7.17;3.10;;;22.40;42.10;;;;;;5027124;28;20432;-72
2022/06/07 08:48:35;;;;;;;6.23;3.20;;;21.80;39.20;;;;;;5028211;28;20932;-71
2022/06/07 08:51:28;;;;;;;4.10;3.20;;;21.90;37.80;;;;;;5026682;28;20441;-72
2022/06/07 08:53:59;;;;;;;7.87;3.43;;;21.50;39.20;;;;;;5018681;28;20420;-71
2022/06/07 08:56:28;;;;;;;5.27;2.93;;;21.00;40.60;;;;;;5015923;28;20462;-72
2022/06/07 08:58:57;;;;;;;5.30;3.23;;;21.00;41.30;;;;;;5029641;28;20440;-72
2022/06/07 09:01:23;;;;;;;3.60;3.00;;;21.40;40.70;;;;;;5028548;28;20452;-71
2022/06/07 09:04:04;;;;;;;5.20;3.37;;;21.40;40.00;;;;;;5028581;28;20476;-71
2022/06/07 09:06:34;;;;;;;6.53;2.97;;;21.40;39.60;;;;;;5025066;28;20185;-72
2022/06/07 09:09:01;;;;;;;8.63;2.93;;;22.10;37.80;;;;;;5022224;28;20452;-72
2022/06/07 09:12:12;;;;;;;4.10;2.77;;;22.70;35.00;;;;;;5025929;28;20455;-72
2022/06/07 09:14:54;;;;;;;3.83;2.90;;;22.80;33.40;;;;;;5022910;28;20419;-72
2022/06/07 09:17:53;;;;;;;4.80;2.80;;;22.00;34.60;;;;;;5029834;28;20436;-72
2022/06/07 09:20:26;;;;;;;3.80;2.80;;;21.80;35.90;;;;;;4948508;28;20446;-72
2022/06/07 09:23:12;;;;;;;7.20;2.90;;;21.80;38.50;;;;;;4943496;28;20486;-72
2022/06/07 09:25:48;;;;;;;3.43;2.70;;;22.30;36.70;;;;;;4947790;29;20447;-71
2022/06/07 09:28:23;;;;;;;5.30;3.10;;;22.40;36.70;;;;;;4950005;28;20453;-72
2022/06/07 09:30:57;;;;;;;5.77;3.10;;;22.00;35.10;;;;;;4944460;28;20461;-72
2022/06/07 09:33:25;;;;;;;5.47;3.03;;;22.10;34.40;;;;;;4949355;29;20537;-72
2022/06/07 09:35:52;;;;;;;4.20;2.73;;;21.90;36.30;;;;;;4951121;28;20833;-72
2022/06/07 09:38:36;;;;;;;3.53;2.60;;;22.10;33.30;;;;;;4953960;29;20825;-72
2022/06/07 09:44:21;;;;;;;7.13;3.50;;;22.20;34.10;;;;;;4950622;29;20438;-72
2022/06/07 09:47:00;;;;;;;6.93;3.10;;;22.60;33.00;;;;;;4896937;29;20798;-72
2022/06/07 09:49:26;;;;;;;4.40;2.73;;;23.20;33.90;;;;;;4938862;29;20817;-72
2022/06/07 09:51:51;;;;;;;4.20;2.90;;;23.80;33.80;;;;;;4937771;29;20450;-72
2022/06/07 09:54:20;;;;;;;4.00;2.93;;;23.70;32.10;;;;;;4935082;29;20639;-72
2022/06/07 09:57:25;;;;;;;9.93;3.10;;;23.80;31.30;;;;;;4978641;28;20188;-73
2022/06/07 10:00:06;;;;;;;4.27;2.87;;;23.20;31.70;;;;;;5014369;28;20389;-72
2022/06/07 10:03:00;;;;;;;4.10;2.80;;;23.70;30.30;;;;;;5014218;28;20515;-72
2022/06/07 10:05:54;;;;;;;5.83;3.17;;;23.40;30.70;;;;;;5015364;28;20445;-72
2022/06/07 10:08:53;;;;;;;6.70;2.43;;;23.00;31.00;;;;;;5014217;28;20396;-73
2022/06/07 10:11:33;;;;;;;3.60;2.30;;;23.00;31.30;;;;;;5014009;28;20425;-72
2022/06/07 10:14:33;;;;;;;5.23;2.77;;;23.60;31.30;;;;;;5014152;28;20406;-72
2022/06/07 10:17:24;;;;;;;4.20;2.70;;;23.80;30.00;;;;;;5023620;28;20916;-72
2022/06/07 10:20:08;;;;;;;4.20;2.83;;;23.10;32.00;;;;;;5033723;28;20387;-73
2022/06/07 10:23:12;;;;;;;3.53;2.70;;;23.00;32.70;;;;;;5033263;28;20470;-73
2022/06/07 10:26:09;;;;;;;4.57;2.90;;;23.80;31.90;;;;;;5033564;28;20855;-72
2022/06/07 10:28:49;;;;;;;3.90;2.50;;;23.00;29.80;;;;;;5028873;28;20434;-74
2022/06/07 10:31:30;;;;;;;5.13;2.53;;;22.60;30.40;;;;;;5028316;28;20786;-72
2022/06/07 10:34:03;;;;;;;4.97;2.50;;;21.60;32.40;;;;;;5031899;28;20467;-72
2022/06/07 10:36:35;;;;;;;5.00;2.70;;;21.20;34.50;;;;;;5013983;28;20445;-73
2022/06/07 10:39:38;;;;;;;3.90;2.70;;;21.50;33.90;;;;;;5021569;28;20440;-72
2022/06/07 10:42:11;;;;;;;3.47;2.43;;;22.50;31.80;;;;;;5033122;28;20485;-73
2022/06/07 10:44:59;;;;;;;3.60;2.67;;;23.00;32.20;;;;;;5031242;28;20800;-72
2022/06/07 10:48:04;;;;;;;3.40;2.33;;;23.70;29.30;;;;;;5024177;28;20488;-72
2022/06/07 10:50:48;;;;;;;4.87;2.27;;;23.30;28.40;;;;;;5000269;28;20967;-72
2022/06/07 10:53:33;;;;;;;7.27;2.20;;;22.40;31.50;;;;;;5027976;28;20501;-73
2022/06/07 10:56:25;;;;;;;5.07;2.40;;;22.80;30.80;;;;;;5026484;28;20441;-73
2022/06/07 10:58:53;;;;;;;3.23;2.10;;;23.50;28.20;;;;;;5011104;28;20442;-72
2022/06/07 11:01:37;;;;;;;6.87;2.43;;;24.10;28.70;;;;;;5032247;28;20435;-73
2022/06/07 11:10:00;;;;;;;6.70;2.30;;;23.10;29.00;;;;;;5031437;28;20445;-73
2022/06/07 11:12:33;;;;;;;3.00;2.40;;;23.60;28.50;;;;;;5032566;28;20970;-73
2022/06/07 11:15:06;;;;;;;3.10;2.50;;;23.80;28.70;;;;;;5032546;28;20402;-73
2022/06/07 11:18:08;;;;;;;4.83;2.47;;;23.70;29.00;;;;;;5033530;28;20407;-73
2022/06/07 11:20:36;;;;;;;3.93;2.40;;;23.10;31.20;;;;;;4972862;28;20432;-72
2022/06/07 11:23:11;;;;;;;7.10;2.73;;;23.80;28.80;;;;;;4971154;28;20473;-73
2022/06/07 11:25:37;;;;;;;5.33;2.40;;;24.00;28.80;;;;;;4971506;28;20801;-73
2022/06/07 11:28:13;;;;;;;5.80;2.43;;;23.40;28.70;;;;;;4971199;28;20458;-73
2022/06/07 11:30:38;;;;;;;2.70;1.93;;;22.70;29.70;;;;;;4970892;28;20417;-72
2022/06/07 11:33:38;;;;;;;3.53;2.07;;;22.80;28.10;;;;;;4970979;28;20484;-73
2022/06/07 11:36:03;;;;;;;3.27;2.20;;;23.40;29.50;;;;;;4964257;28;20191;-73
2022/06/07 11:38:31;;;;;;;2.70;2.20;;;24.60;27.30;;;;;;4951761;29;20509;-73
2022/06/07 11:41:36;;;;;;;3.30;2.30;;;25.20;26.20;;;;;;4951575;29;20190;-72
2022/06/07 11:44:03;;;;;;;2.63;1.97;;;24.80;25.50;;;;;;4951641;29;20403;-73
2022/06/07 11:46:35;;;;;;;8.67;3.20;;;24.50;27.30;;;;;;4958804;28;21028;-72
2022/06/07 11:49:20;;;;;;;2.77;1.90;;;24.60;25.80;;;;;;4971139;28;20414;-73
2022/06/07 11:52:05;;;;;;;8.73;2.30;;;23.60;27.20;;;;;;4970319;28;20437;-72
2022/06/07 11:54:46;;;;;;;3.60;2.37;;;24.50;26.10;;;;;;5000932;28;20910;-73
2022/06/07 11:57:23;;;;;;;4.60;2.33;;;25.10;25.60;;;;;;5025614;28;20885;-72
2022/06/07 12:00:17;;;;;;;3.40;2.07;;;25.30;24.90;;;;;;5011707;28;20466;-73
2022/06/07 12:03:00;;;;;;;4.97;3.33;;;24.60;26.60;;;;;;5000247;28;20473;-72
2022/06/07 12:05:52;;;;;;;2.30;1.77;;;24.40;27.50;;;;;;5024050;28;20791;-73
2022/06/07 12:08:24;;;;;;;8.17;3.10;;;24.60;26.40;;;;;;5028979;28;20434;-73
2022/06/07 12:11:22;;;;;;;5.07;2.60;;;24.90;28.00;;;;;;5025579;28;20466;-72
2022/06/07 12:13:56;;;;;;;2.83;2.17;;;25.70;26.10;;;;;;5012010;28;20472;-72
2022/06/07 12:16:42;;;;;;;12.03;2.20;;;26.10;24.60;;;;;;5014575;28;20462;-72
2022/06/07 12:19:19;;;;;;;5.10;2.30;;;24.50;24.30;;;;;;5021603;28;20485;-72
2022/06/07 12:21:57;;;;;;;4.57;2.27;;;23.90;28.80;;;;;;5026796;28;20517;-72
2022/06/07 12:24:23;;;;;;;2.60;2.07;;;24.60;27.20;;;;;;5031223;28;20477;-72
2022/06/07 12:26:50;;;;;;;4.47;1.97;;;24.90;27.60;;;;;;5026914;28;20788;-72
2022/06/07 12:29:29;;;;;;;2.83;2.13;;;25.40;25.10;;;;;;5025510;28;20430;-72
2022/06/07 12:32:04;;;;;;;6.10;2.30;;;25.40;25.30;;;;;;5031272;28;20926;-72
2022/06/07 12:34:36;;;;;;;3.40;2.17;;;23.90;27.40;;;;;;5011989;28;20762;-72
2022/06/07 12:37:03;;;;;;;2.70;2.00;;;24.00;27.90;;;;;;5016221;28;20427;-72
2022/06/07 12:39:31;;;;;;;3.23;2.10;;;23.90;26.10;;;;;;5025239;28;20436;-72
2022/06/07 12:42:12;;;;;;;2.73;2.20;;;24.40;26.10;;;;;;5025639;28;20466;-72
2022/06/07 12:44:43;;;;;;;4.63;2.30;;;23.90;25.90;;;;;;5028050;28;20466;-72
2022/06/07 12:47:25;;;;;;;4.97;2.30;;;23.80;26.90;;;;;;5044102;28;20427;-72
2022/06/07 12:49:51;;;;;;;6.63;2.63;;;23.40;28.00;;;;;;5033665;28;20402;-72
2022/06/07 12:52:22;;;;;;;2.87;2.40;;;23.30;28.30;;;;;;5029910;28;20458;-72
2022/06/07 12:54:50;;;;;;;2.97;2.17;;;24.40;27.60;;;;;;5031202;28;20176;-73
2022/06/07 12:57:26;;;;;;;3.60;2.10;;;24.70;26.20;;;;;;5022014;28;20430;-73
2022/06/07 12:59:54;;;;;;;5.53;2.43;;;24.70;26.10;;;;;;5031341;28;20413;-73
2022/06/07 13:02:26;;;;;;;4.50;2.20;;;24.90;26.30;;;;;;5029208;28;20463;-73
2022/06/07 13:05:04;;;;;;;3.03;2.30;;;25.60;29.40;;;;;;5031157;28;20407;-73
2022/06/07 13:07:32;;;;;;;3.57;2.10;;;26.50;25.10;;;;;;5024001;28;20443;-72
2022/06/07 13:10:05;;;;;;;2.47;2.13;;;25.90;24.20;;;;;;5027657;28;20561;-73
2022/06/07 13:12:36;;;;;;;3.63;2.37;;;25.20;25.80;;;;;;5034227;28;20445;-73
2022/06/07 13:15:11;;;;;;;5.03;2.20;;;24.20;27.10;;;;;;5034934;28;20763;-73
2022/06/07 13:17:51;;;;;;;2.83;2.00;;;23.80;27.70;;;;;;5030496;28;20521;-72
2022/06/07 13:20:28;;;;;;;3.97;2.60;;;24.50;28.70;;;;;;5029695;28;20445;-72
2022/06/07 13:22:54;;;;;;;2.80;2.20;;;24.80;27.80;;;;;;5034305;28;20620;-72
2022/06/07 13:25:31;;;;;;;5.83;2.50;;;25.50;28.00;;;;;;5032039;28;20981;-72
2022/06/07 13:28:00;;;;;;;3.90;2.33;;;25.30;25.80;;;;;;5031692;28;20179;-72